createdAt,value
2018-07-13T05:43:51.532Z,963.11
2018-07-13T05:44:53.255Z,963.08
2018-07-13T05:45:51.276Z,963.13
2018-07-13T05:46:51.311Z,963.13
2018-07-13T05:47:51.375Z,963.14
2018-07-13T05:48:51.276Z,963.20
2018-07-13T05:49:51.154Z,963.16
2018-07-13T05:50:51.912Z,963.10
2018-07-13T05:51:51.113Z,963.11
2018-07-13T11:50:30.170Z,962.79
2018-07-13T11:51:30.104Z,962.78
2018-07-13T11:52:30.067Z,962.79
2018-07-13T11:53:30.045Z,962.76
2018-07-13T11:54:30.012Z,962.76
2018-07-13T11:55:29.960Z,962.70
2018-07-13T11:56:29.938Z,962.72
2018-07-13T11:57:29.881Z,962.73
2018-07-13T11:58:29.833Z,962.73
2018-07-13T11:59:29.779Z,962.71
2018-07-13T12:00:29.775Z,962.74
2018-07-13T12:01:29.694Z,962.69
2018-07-13T12:02:29.697Z,962.68
2018-07-13T12:03:29.578Z,962.69
2018-07-13T12:04:29.526Z,962.62
2018-07-13T12:05:29.486Z,962.61
2018-07-13T12:06:29.417Z,962.64
2018-07-13T12:07:29.502Z,962.61
2018-07-13T12:08:29.826Z,962.60
2018-07-13T12:09:29.269Z,962.63
2018-07-13T12:10:29.209Z,962.64
2018-07-13T12:11:29.149Z,962.62
2018-07-13T12:12:29.144Z,962.60
2018-07-13T12:13:29.051Z,962.64
2018-07-13T12:14:29.117Z,962.61
2018-07-13T12:15:28.927Z,962.60
2018-07-13T12:16:28.900Z,962.55
2018-07-13T12:17:28.875Z,962.62
2018-07-13T12:18:28.763Z,962.57
2018-07-13T12:19:28.715Z,962.58
2018-07-13T12:20:28.684Z,962.59
2018-07-13T12:21:28.600Z,962.58
2018-07-13T12:22:28.544Z,962.55
2018-07-13T12:23:28.489Z,962.57
2018-07-13T12:24:28.426Z,962.55
2018-07-13T12:25:28.361Z,962.51
2018-07-13T12:26:28.315Z,962.52
2018-07-13T12:27:28.230Z,962.49
2018-07-13T12:28:28.164Z,962.47
2018-07-13T12:29:28.099Z,962.46
2018-07-13T12:30:28.027Z,962.46
2018-07-13T12:31:27.954Z,962.51
2018-07-13T12:32:27.947Z,962.52
2018-07-13T12:33:27.813Z,962.49
2018-07-13T12:34:27.747Z,962.44
2018-07-13T12:35:27.677Z,962.45
2018-07-13T12:36:27.624Z,962.49
2018-07-13T12:37:27.547Z,962.49
2018-07-13T12:38:27.500Z,962.52
2018-07-13T12:39:27.476Z,962.53
2018-07-13T12:40:27.419Z,962.46
2018-07-13T12:41:27.280Z,962.49
2018-07-13T12:42:27.214Z,962.48
2018-07-13T12:43:27.203Z,962.50
2018-07-13T12:44:27.100Z,962.44
2018-07-13T12:45:27.050Z,962.41
2018-07-13T12:46:26.954Z,962.40
2018-07-13T12:47:26.892Z,962.43
2018-07-13T12:48:26.826Z,962.46
2018-07-13T12:49:26.761Z,962.40
2018-07-13T12:50:26.715Z,962.35
2018-07-13T12:51:26.637Z,962.35
2018-07-13T12:52:26.572Z,962.42
2018-07-13T12:53:26.504Z,962.39
2018-07-13T12:54:26.576Z,962.41
2018-07-13T12:55:26.361Z,962.36
2018-07-13T12:56:26.332Z,962.36
2018-07-13T12:57:26.220Z,962.33
2018-07-13T12:58:26.148Z,962.35
2018-07-13T12:59:26.190Z,962.36
2018-07-13T13:00:26.008Z,962.31
2018-07-13T13:01:25.930Z,962.34
2018-07-13T13:02:25.870Z,962.34
2018-07-13T13:03:25.785Z,962.38
2018-07-13T13:04:25.720Z,962.29
2018-07-13T13:05:25.690Z,962.30
2018-07-13T13:06:25.567Z,962.31
2018-07-13T13:07:25.490Z,962.32
2018-07-13T13:08:25.428Z,962.33
2018-07-13T13:09:25.338Z,962.35
2018-07-13T13:10:25.259Z,962.31
2018-07-13T13:11:25.182Z,962.33
2018-07-13T13:12:25.105Z,962.31
2018-07-13T13:13:25.031Z,962.30
2018-07-13T13:14:24.976Z,962.33
2018-07-13T13:15:25.015Z,962.33
2018-07-13T13:16:24.803Z,962.32
2018-07-13T13:17:24.727Z,962.33
2018-07-13T13:18:24.679Z,962.35
2018-07-13T13:19:24.571Z,962.32
2018-07-13T13:20:24.504Z,962.35
2018-07-13T13:21:24.409Z,962.34
2018-07-13T13:22:24.329Z,962.35
2018-07-13T13:23:24.270Z,962.31
2018-07-13T13:24:24.172Z,962.30
2018-07-13T13:25:24.103Z,962.30
2018-07-13T13:26:24.031Z,962.35
2018-07-13T13:27:23.936Z,962.37
2018-07-13T13:28:23.862Z,962.29
2018-07-13T13:29:23.812Z,962.31
2018-07-13T13:30:23.705Z,962.25
2018-07-13T13:31:23.629Z,962.32
2018-07-13T13:32:23.568Z,962.28
2018-07-13T13:33:24.281Z,962.28
2018-07-13T13:34:23.396Z,962.33
2018-07-13T13:35:24.285Z,962.32
2018-07-13T13:36:23.251Z,962.35
2018-07-13T13:37:23.174Z,962.33
2018-07-13T13:38:23.134Z,962.33
2018-07-13T13:39:23.034Z,962.28
2018-07-13T13:40:23.758Z,962.38
2018-07-13T13:41:22.863Z,962.32
2018-07-13T13:42:23.781Z,962.29
2018-07-13T13:43:22.720Z,962.33
2018-07-13T13:44:22.665Z,962.35
2018-07-13T13:45:23.331Z,962.29
2018-07-13T13:46:22.507Z,962.29
2018-07-13T13:47:22.446Z,962.25
2018-07-13T13:48:22.371Z,962.30
2018-07-13T13:49:22.297Z,962.28
2018-07-13T13:50:22.238Z,962.25
2018-07-13T13:51:22.159Z,962.22
2018-07-13T13:52:22.095Z,962.29
2018-07-13T13:53:24.785Z,962.26
2018-07-13T13:54:21.978Z,962.26
2018-07-13T13:55:24.786Z,962.22
2018-07-13T13:56:21.876Z,962.29
2018-07-13T13:57:22.786Z,962.27
2018-07-13T13:58:21.740Z,962.25
2018-07-13T13:59:21.678Z,962.24
2018-07-13T14:00:21.612Z,962.24
2018-07-13T14:01:21.545Z,962.20
2018-07-13T14:02:21.518Z,962.22
2018-07-13T14:03:22.407Z,962.20
2018-07-13T14:04:21.359Z,962.22
2018-07-13T14:05:21.368Z,962.19
2018-07-13T14:06:21.236Z,962.15
2018-07-13T14:07:21.845Z,962.20
2018-07-13T14:08:21.118Z,962.14
2018-07-13T14:09:21.090Z,962.16
2018-07-13T14:10:20.974Z,962.16
2018-07-13T14:11:20.909Z,962.17
2018-07-13T14:12:23.938Z,962.09
2018-07-13T14:13:20.773Z,962.11
2018-07-13T14:14:20.733Z,962.15
2018-07-13T14:15:20.691Z,962.13
2018-07-13T14:16:20.587Z,962.13
2018-07-13T14:17:23.290Z,962.13
2018-07-13T14:18:20.459Z,962.10
2018-07-13T14:19:20.386Z,962.08
2018-07-13T14:20:20.357Z,962.07
2018-07-13T14:21:20.336Z,962.07
2018-07-13T14:22:20.198Z,962.06
2018-07-13T14:23:20.125Z,962.04
2018-07-13T14:24:20.832Z,962.04
2018-07-13T14:25:20.002Z,962.08
2018-07-13T14:26:19.986Z,962.06
2018-07-13T14:27:19.951Z,962.07
2018-07-13T14:28:19.878Z,962.08
2018-07-13T14:29:19.762Z,962.02
2018-07-13T14:30:19.828Z,962.02
2018-07-13T14:31:19.631Z,962.01
2018-07-13T14:32:19.602Z,962.03
2018-07-13T14:33:19.513Z,961.99
2018-07-13T14:34:19.464Z,961.98
2018-07-13T14:35:19.368Z,961.94
2018-07-13T14:36:19.304Z,961.97
2018-07-13T14:37:19.300Z,961.92
2018-07-13T14:38:19.195Z,961.95
2018-07-13T14:39:19.135Z,961.97
